Time;durP1;ratioP1;P1;durP2;ratioP2;P2;SDS_P1;SDS_P2;PMS_P1;PMS_P2;Temp;Humidity;BMP_temperature;BMP_pressure;BME280_temperature;BME280_humidity;BME280_pressure;Samples;Min_cycle;Max_cycle;Signal;HPM_P1;HPM_P2
2021/05/29 00:00:57;;;;;;;8.60;7.90;;;11.20;99.90;;;;;;5111718;27;20498;-60
2021/05/29 00:03:25;;;;;;;7.80;7.10;;;11.20;99.90;;;;;;5111510;28;20267;-60
2021/05/29 00:05:50;;;;;;;7.30;6.60;;;11.20;99.90;;;;;;5092615;28;20234;-61
2021/05/29 00:08:16;;;;;;;8.27;7.47;;;11.20;99.90;;;;;;5109347;28;20417;-61
2021/05/29 00:10:45;;;;;;;7.77;6.93;;;11.20;99.90;;;;;;5111314;28;20451;-59
2021/05/29 00:13:11;;;;;;;7.97;7.13;;;11.20;99.90;;;;;;5111176;28;20272;-60
2021/05/29 00:15:38;;;;;;;7.07;6.47;;;11.00;99.90;;;;;;5111734;28;20436;-60
2021/05/29 00:18:04;;;;;;;11.17;7.20;;;10.90;99.90;;;;;;5111208;28;20911;-60
2021/05/29 00:20:30;;;;;;;10.37;7.03;;;10.90;99.90;;;;;;5111435;27;20468;-59
2021/05/29 00:22:55;;;;;;;12.30;7.07;;;10.90;99.90;;;;;;5092785;28;20480;-60
2021/05/29 00:25:21;;;;;;;7.23;6.53;;;10.90;99.90;;;;;;5111410;28;20192;-60
2021/05/29 00:27:46;;;;;;;6.40;5.80;;;10.90;99.90;;;;;;5111513;28;20182;-60
2021/05/29 00:30:13;;;;;;;9.93;7.60;;;10.90;99.90;;;;;;5111043;28;20639;-60
2021/05/29 00:32:39;;;;;;;7.20;6.50;;;10.90;99.90;;;;;;5111623;28;20582;-60
2021/05/29 00:35:07;;;;;;;10.30;6.00;;;10.80;99.90;;;;;;5111079;28;20450;-61
2021/05/29 00:37:33;;;;;;;6.67;5.87;;;10.80;99.90;;;;;;5110433;28;20479;-60
2021/05/29 00:39:59;;;;;;;6.33;5.70;;;10.60;99.90;;;;;;5111064;28;20771;-61
2021/05/29 00:42:25;;;;;;;5.93;5.23;;;10.60;99.90;;;;;;5110994;28;20690;-61
2021/05/29 00:44:53;;;;;;;8.03;5.80;;;10.50;99.90;;;;;;5111347;28;20600;-61
2021/05/29 00:47:20;;;;;;;5.80;5.20;;;10.60;99.90;;;;;;5110409;28;20470;-59
2021/05/29 00:49:45;;;;;;;8.10;5.87;;;10.50;99.90;;;;;;5111439;28;20450;-60
2021/05/29 00:52:14;;;;;;;6.07;5.47;;;10.50;99.90;;;;;;5110744;28;20438;-58
2021/05/29 00:54:41;;;;;;;5.60;5.20;;;10.40;99.90;;;;;;5111037;28;20893;-60
2021/05/29 00:57:07;;;;;;;6.40;5.13;;;10.40;99.90;;;;;;5101940;28;20465;-60
2021/05/29 00:59:32;;;;;;;5.90;5.30;;;10.40;99.90;;;;;;5111100;28;20607;-61
2021/05/29 01:01:58;;;;;;;5.47;4.70;;;10.30;99.90;;;;;;5110709;28;20437;-58
2021/05/29 01:04:23;;;;;;;5.50;5.00;;;10.30;99.90;;;;;;5104618;28;20217;-59
2021/05/29 01:06:49;;;;;;;6.87;6.27;;;10.30;99.90;;;;;;5106042;28;20677;-58
2021/05/29 01:09:14;;;;;;;7.20;5.83;;;10.30;99.90;;;;;;5110168;28;20546;-60
2021/05/29 01:11:40;;;;;;;5.83;4.70;;;10.30;99.90;;;;;;5110946;28;20174;-60
2021/05/29 01:14:06;;;;;;;6.47;5.87;;;10.20;99.90;;;;;;5104730;28;20178;-58
2021/05/29 01:19:04;;;;;;;5.33;4.83;;;10.20;99.90;;;;;;5112653;28;20707;-60
2021/05/29 01:21:30;;;;;;;5.80;5.20;;;10.10;99.90;;;;;;5114772;28;20439;-59
2021/05/29 01:23:56;;;;;;;5.50;5.00;;;10.10;99.90;;;;;;5114847;28;20910;-60
2021/05/29 01:26:22;;;;;;;7.47;5.70;;;10.00;99.90;;;;;;5114464;28;20454;-60
2021/05/29 01:28:53;;;;;;;5.73;5.23;;;10.00;99.90;;;;;;5109658;27;20212;-60
2021/05/29 01:31:19;;;;;;;6.03;5.47;;;10.00;99.90;;;;;;5115064;28;20441;-59
2021/05/29 01:33:45;;;;;;;5.70;5.20;;;9.90;99.90;;;;;;5109452;28;20451;-59
2021/05/29 01:36:11;;;;;;;5.50;5.00;;;9.90;99.90;;;;;;5114233;28;20436;-60
2021/05/29 01:38:39;;;;;;;6.70;6.10;;;9.90;99.90;;;;;;5114151;28;20933;-59
2021/05/29 01:41:08;;;;;;;5.87;5.27;;;9.90;99.90;;;;;;5114750;28;20440;-60
2021/05/29 01:43:38;;;;;;;6.00;5.50;;;9.90;99.90;;;;;;5095997;28;20440;-59
2021/05/29 01:46:05;;;;;;;8.20;6.70;;;9.80;99.90;;;;;;5114475;28;20433;-60
2021/05/29 01:48:34;;;;;;;6.63;5.97;;;9.80;99.90;;;;;;5114521;28;20440;-61
2021/05/29 01:51:01;;;;;;;7.80;7.00;;;9.90;99.90;;;;;;5114139;28;20482;-60
2021/05/29 01:53:28;;;;;;;7.20;6.60;;;9.90;99.90;;;;;;5113942;27;20426;-60
2021/05/29 01:55:53;;;;;;;9.93;8.20;;;9.90;99.90;;;;;;5110005;27;20466;-60
2021/05/29 01:58:19;;;;;;;8.63;7.60;;;9.80;99.90;;;;;;5112507;28;20464;-60
2021/05/29 02:00:45;;;;;;;8.60;7.70;;;9.80;99.90;;;;;;5114062;28;20182;-59
2021/05/29 02:03:11;;;;;;;8.50;7.70;;;9.90;99.90;;;;;;5114174;28;20805;-60
2021/05/29 02:05:38;;;;;;;9.10;8.20;;;10.00;99.90;;;;;;5113326;28;20440;-60
2021/05/29 02:08:06;;;;;;;9.87;8.23;;;10.00;99.90;;;;;;5113546;28;20440;-59
2021/05/29 02:10:33;;;;;;;9.90;8.90;;;10.00;99.90;;;;;;5114092;28;20782;-61
2021/05/29 02:13:02;;;;;;;9.20;8.30;;;10.10;99.90;;;;;;5113879;28;20445;-59
2021/05/29 02:15:32;;;;;;;9.30;8.10;;;10.00;99.90;;;;;;5113894;28;20439;-60
2021/05/29 02:18:01;;;;;;;12.30;8.10;;;10.10;99.90;;;;;;5113092;28;20494;-59
2021/05/29 02:20:47;;;;;;;9.50;8.60;;;10.00;99.90;;;;;;5095628;28;20766;-59
2021/05/29 02:23:16;;;;;;;9.10;7.80;;;9.90;99.90;;;;;;5096074;28;21074;-58
2021/05/29 02:25:42;;;;;;;8.63;7.77;;;9.90;99.90;;;;;;5113891;28;21002;-58
2021/05/29 02:28:08;;;;;;;12.23;8.17;;;9.90;99.90;;;;;;5113626;28;20441;-60
2021/05/29 02:30:35;;;;;;;10.80;7.67;;;9.80;99.90;;;;;;5112694;28;20459;-60
2021/05/29 02:33:01;;;;;;;9.50;7.90;;;9.80;99.90;;;;;;5109621;28;20447;-59
2021/05/29 02:35:27;;;;;;;10.13;8.50;;;9.80;99.90;;;;;;5113488;28;20846;-61
2021/05/29 02:37:53;;;;;;;9.50;8.60;;;9.70;99.90;;;;;;5094499;28;20966;-61
2021/05/29 02:40:18;;;;;;;8.93;8.13;;;9.70;99.90;;;;;;5113409;28;20444;-60
2021/05/29 02:42:46;;;;;;;9.37;8.40;;;9.80;99.90;;;;;;5113665;28;20563;-60
2021/05/29 02:45:14;;;;;;;13.37;9.40;;;9.70;99.90;;;;;;5112920;28;20442;-59
2021/05/29 02:47:39;;;;;;;18.07;8.50;;;9.70;99.90;;;;;;5112834;28;20442;-59
2021/05/29 02:50:07;;;;;;;11.77;9.47;;;9.70;99.90;;;;;;5113073;28;20458;-59
2021/05/29 02:52:33;;;;;;;20.03;8.80;;;9.70;99.90;;;;;;5089873;27;20191;-60
2021/05/29 02:54:59;;;;;;;13.50;9.23;;;9.60;99.90;;;;;;5112918;28;20493;-59
2021/05/29 02:57:24;;;;;;;13.07;9.20;;;9.70;99.90;;;;;;5089427;28;20480;-59
2021/05/29 02:59:50;;;;;;;14.33;9.97;;;9.70;99.90;;;;;;5113190;28;20437;-58
2021/05/29 03:02:15;;;;;;;14.10;8.37;;;9.70;99.90;;;;;;5102703;28;20179;-60
2021/05/29 03:04:41;;;;;;;12.63;9.17;;;9.70;99.90;;;;;;5112871;28;20254;-59
2021/05/29 03:07:07;;;;;;;11.13;9.70;;;9.60;99.90;;;;;;5112408;28;20220;-59
2021/05/29 03:09:33;;;;;;;9.40;8.50;;;9.70;99.90;;;;;;5112739;28;20731;-61
2021/05/29 03:11:59;;;;;;;10.77;9.20;;;9.60;99.90;;;;;;5112773;28;20432;-58
2021/05/29 03:14:25;;;;;;;12.37;10.90;;;9.60;99.90;;;;;;5112677;28;20421;-60
2021/05/29 03:16:51;;;;;;;12.90;9.50;;;9.60;99.90;;;;;;5088579;27;20489;-60
2021/05/29 03:19:17;;;;;;;14.57;13.07;;;9.60;99.90;;;;;;5112010;27;20463;-59
2021/05/29 03:21:43;;;;;;;15.43;10.80;;;9.60;99.90;;;;;;5112839;28;20192;-60
2021/05/29 03:24:10;;;;;;;15.20;11.23;;;9.60;99.90;;;;;;5094997;27;20657;-60
2021/05/29 03:26:36;;;;;;;14.60;10.40;;;9.60;99.90;;;;;;5112489;28;20957;-58
2021/05/29 03:29:02;;;;;;;10.60;9.50;;;9.60;99.90;;;;;;5112224;28;21576;-61
2021/05/29 03:31:28;;;;;;;12.10;8.90;;;9.50;99.90;;;;;;5094028;28;20440;-58
2021/05/29 03:33:53;;;;;;;10.00;9.00;;;9.60;99.90;;;;;;5112175;28;20440;-58
2021/05/29 03:36:19;;;;;;;10.60;8.93;;;9.60;99.90;;;;;;5093820;28;20502;-58
2021/05/29 03:38:45;;;;;;;8.00;7.20;;;9.70;99.90;;;;;;5109106;28;20214;-59
2021/05/29 03:41:10;;;;;;;7.93;7.10;;;9.70;99.90;;;;;;5109557;28;20174;-59
2021/05/29 03:43:36;;;;;;;7.40;6.60;;;9.70;99.90;;;;;;5112047;28;20651;-59
2021/05/29 03:46:02;;;;;;;6.43;5.90;;;9.80;99.90;;;;;;5112302;28;20532;-58
2021/05/29 03:48:28;;;;;;;6.37;5.77;;;9.90;99.90;;;;;;5112316;27;20821;-58
2021/05/29 03:50:54;;;;;;;6.80;6.10;;;9.90;99.90;;;;;;5112130;28;20423;-60
2021/05/29 03:53:19;;;;;;;7.47;6.17;;;10.20;99.90;;;;;;5111874;28;20192;-59
2021/05/29 03:55:45;;;;;;;7.33;6.63;;;10.20;99.90;;;;;;5111293;28;20186;-60
2021/05/29 03:58:12;;;;;;;7.50;6.80;;;10.20;99.90;;;;;;5111633;28;20549;-59
2021/05/29 04:00:38;;;;;;;6.73;6.13;;;10.30;99.90;;;;;;5088512;28;20178;-60
2021/05/29 04:03:03;;;;;;;6.43;5.83;;;10.40;99.90;;;;;;5111813;28;20426;-59
2021/05/29 04:05:29;;;;;;;6.73;6.17;;;10.40;99.90;;;;;;5111503;28;20588;-59
2021/05/29 04:07:55;;;;;;;6.10;5.60;;;10.50;99.90;;;;;;5111819;28;20787;-60
2021/05/29 04:10:24;;;;;;;7.13;6.53;;;10.50;99.90;;;;;;5111871;28;20182;-59
2021/05/29 04:12:50;;;;;;;6.83;6.23;;;10.50;99.30;;;;;;5111666;28;20196;-59
2021/05/29 04:15:16;;;;;;;6.70;6.10;;;10.60;97.60;;;;;;5111334;28;20445;-60
2021/05/29 04:17:43;;;;;;;6.37;5.83;;;10.70;93.60;;;;;;5111980;28;20463;-59
2021/05/29 04:20:10;;;;;;;7.77;6.97;;;10.70;88.80;;;;;;5100985;28;20451;-59
2021/05/29 04:22:36;;;;;;;7.00;6.40;;;10.80;88.60;;;;;;5111461;28;20437;-58
2021/05/29 04:25:04;;;;;;;8.60;7.70;;;10.80;90.00;;;;;;5092811;28;21000;-59
2021/05/29 04:27:30;;;;;;;10.27;8.77;;;10.90;91.30;;;;;;5111785;28;21956;-59
2021/05/29 04:29:55;;;;;;;9.73;8.43;;;11.00;90.40;;;;;;5111421;28;20448;-59
2021/05/29 04:32:21;;;;;;;8.67;7.87;;;11.00;89.70;;;;;;5111340;28;20241;-59
2021/05/29 04:34:46;;;;;;;8.13;6.73;;;11.10;90.00;;;;;;5111193;28;20186;-58
2021/05/29 04:37:16;;;;;;;8.10;7.40;;;11.20;91.00;;;;;;5092597;28;20861;-59
2021/05/29 04:39:43;;;;;;;7.53;6.83;;;11.20;81.10;;;;;;5109381;28;20225;-59
2021/05/29 04:42:09;;;;;;;7.47;6.80;;;11.30;59.70;;;;;;5106347;28;20546;-58
2021/05/29 04:44:35;;;;;;;8.03;7.23;;;11.40;56.40;;;;;;5109039;28;20411;-59
2021/05/29 04:47:02;;;;;;;7.47;6.77;;;11.40;40.90;;;;;;5086150;28;20190;-59
2021/05/29 04:49:29;;;;;;;8.80;7.90;;;11.40;37.60;;;;;;5107619;28;20432;-60
2021/05/29 04:51:55;;;;;;;8.07;7.27;;;11.40;35.50;;;;;;5092673;28;20829;-59
2021/05/29 04:54:20;;;;;;;8.53;7.80;;;11.40;44.10;;;;;;5110247;28;20528;-59
2021/05/29 04:56:46;;;;;;;9.50;8.50;;;11.30;41.30;;;;;;5111080;28;20452;-60
2021/05/29 04:59:11;;;;;;;8.83;7.93;;;11.40;38.10;;;;;;5110608;28;20295;-59
2021/05/29 05:01:37;;;;;;;8.17;7.37;;;11.50;42.70;;;;;;5093066;28;20185;-59
2021/05/29 05:04:03;;;;;;;9.17;8.27;;;11.60;39.50;;;;;;5110824;28;20228;-58
2021/05/29 05:06:29;;;;;;;8.60;7.80;;;11.60;35.20;;;;;;5110587;28;20229;-59
2021/05/29 05:08:55;;;;;;;9.73;8.83;;;11.70;29.60;;;;;;5110924;28;20446;-59
2021/05/29 05:11:21;;;;;;;9.77;8.87;;;11.90;28.10;;;;;;5107895;28;20422;-60
2021/05/29 05:13:48;;;;;;;9.23;8.07;;;12.10;4.60;;;;;;5107316;28;20936;-60
2021/05/29 05:16:14;;;;;;;10.57;8.90;;;12.10;1.00;;;;;;5110539;28;20439;-59
2021/05/29 05:18:40;;;;;;;9.70;8.80;;;12.30;1.00;;;;;;5104716;28;21008;-59
2021/05/29 05:21:06;;;;;;;8.70;7.73;;;12.40;1.00;;;;;;5109254;28;20525;-60
2021/05/29 05:23:31;;;;;;;11.70;8.00;;;12.40;1.00;;;;;;5111033;28;20486;-60
2021/05/29 05:25:57;;;;;;;10.47;9.27;;;12.40;1.00;;;;;;5110678;28;20442;-59
2021/05/29 05:28:28;;;;;;;9.47;8.57;;;12.50;1.00;;;;;;5110597;28;20251;-59
2021/05/29 05:30:58;;;;;;;13.53;10.13;;;12.70;1.00;;;;;;5103565;28;20175;-60
2021/05/29 05:33:25;;;;;;;11.40;9.60;;;12.70;1.00;;;;;;5105240;28;20440;-59
2021/05/29 05:35:52;;;;;;;10.43;9.10;;;12.70;1.00;;;;;;5110477;28;20444;-60
2021/05/29 05:38:19;;;;;;;11.00;9.93;;;12.70;1.00;;;;;;5110544;28;20456;-59
2021/05/29 05:40:44;;;;;;;10.30;9.30;;;12.80;1.00;;;;;;5110780;28;20448;-60
2021/05/29 05:43:10;;;;;;;12.90;9.80;;;12.80;1.00;;;;;;5110933;28;20518;-59
2021/05/29 05:45:35;;;;;;;10.17;9.13;;;12.90;1.00;;;;;;5110822;28;20236;-59
2021/05/29 05:48:02;;;;;;;10.50;9.50;;;13.00;1.00;;;;;;5110543;28;20194;-60
2021/05/29 05:50:27;;;;;;;12.43;10.13;;;13.00;1.00;;;;;;5090107;28;20211;-60
2021/05/29 05:52:53;;;;;;;13.87;10.77;;;13.00;1.00;;;;;;5111160;28;20744;-60
2021/05/29 05:55:19;;;;;;;16.93;14.73;;;13.00;1.00;;;;;;5097305;28;20242;-59
2021/05/29 05:57:45;;;;;;;14.83;12.10;;;13.10;1.00;;;;;;5109811;28;20269;-59
2021/05/29 06:00:13;;;;;;;12.63;11.20;;;13.00;1.00;;;;;;5110214;28;20424;-60
2021/05/29 06:02:39;;;;;;;10.90;9.77;;;13.00;1.00;;;;;;5110532;28;20458;-59
2021/05/29 06:05:05;;;;;;;13.30;11.20;;;13.10;1.00;;;;;;5110271;28;20429;-58
2021/05/29 06:07:31;;;;;;;11.40;10.30;;;13.40;1.00;;;;;;5108306;28;20443;-60
2021/05/29 06:09:56;;;;;;;13.63;11.00;;;13.30;1.00;;;;;;5113904;27;20939;-60
2021/05/29 06:12:22;;;;;;;15.47;11.03;;;13.40;1.00;;;;;;5114198;28;20301;-61
2021/05/29 06:20:17;;;;;;;13.40;12.00;;;13.60;1.00;;;;;;5113254;28;20437;-60
2021/05/29 06:22:43;;;;;;;14.73;11.63;;;13.90;1.00;;;;;;5113748;28;20438;-60
2021/05/29 06:25:14;;;;;;;12.20;9.87;;;14.00;1.00;;;;;;5113612;28;20188;-60
2021/05/29 06:27:40;;;;;;;13.43;10.43;;;14.10;1.00;;;;;;5112210;28;20707;-60
2021/05/29 06:30:07;;;;;;;11.33;9.20;;;14.20;1.00;;;;;;5109014;27;20468;-59
2021/05/29 06:32:34;;;;;;;10.73;9.50;;;14.40;1.00;;;;;;5113892;28;20659;-60
2021/05/29 06:35:00;;;;;;;10.97;9.87;;;14.40;1.00;;;;;;5113283;28;20441;-60
2021/05/29 06:37:25;;;;;;;12.90;9.80;;;14.40;1.00;;;;;;5113138;28;20560;-60
2021/05/29 06:39:51;;;;;;;10.07;8.97;;;14.40;1.00;;;;;;5113706;28;20176;-59
2021/05/29 06:42:17;;;;;;;9.43;8.23;;;14.60;1.00;;;;;;5113483;28;20279;-60
2021/05/29 06:44:42;;;;;;;13.73;9.03;;;14.70;1.00;;;;;;5113414;28;20177;-59
2021/05/29 06:47:08;;;;;;;9.77;8.77;;;15.00;1.00;;;;;;5112082;28;20291;-60
2021/05/29 06:49:35;;;;;;;9.50;8.50;;;14.70;1.00;;;;;;5113163;28;20242;-59
2021/05/29 06:52:09;;;;;;;8.37;7.57;;;14.70;1.00;;;;;;5112837;28;20282;-60
2021/05/29 07:00:06;;;;;;;9.07;7.40;;;15.20;1.00;;;;;;5112923;28;20927;-60
2021/05/29 07:02:33;;;;;;;8.80;7.20;;;15.50;1.00;;;;;;5112631;28;20500;-59
2021/05/29 07:04:59;;;;;;;8.40;7.30;;;15.40;1.00;;;;;;5112504;28;20409;-59
2021/05/29 07:07:25;;;;;;;10.50;7.13;;;15.70;1.00;;;;;;5112178;27;20463;-59
2021/05/29 07:09:50;;;;;;;8.20;7.40;;;15.60;1.00;;;;;;5112874;28;20467;-60
2021/05/29 07:12:16;;;;;;;10.13;8.00;;;15.20;1.00;;;;;;5103175;28;20174;-60
2021/05/29 07:14:41;;;;;;;8.50;6.93;;;15.10;1.00;;;;;;5107594;28;20630;-59
2021/05/29 07:17:08;;;;;;;8.27;7.47;;;15.20;1.00;;;;;;5093384;28;20224;-59
2021/05/29 07:19:33;;;;;;;7.67;6.97;;;15.10;1.00;;;;;;5112200;28;20201;-59
2021/05/29 07:21:59;;;;;;;7.80;7.03;;;15.30;1.00;;;;;;5112827;28;20438;-59
2021/05/29 07:24:26;;;;;;;7.00;6.23;;;15.40;1.00;;;;;;5112196;28;20201;-61
2021/05/29 07:26:53;;;;;;;7.00;6.30;;;15.30;1.00;;;;;;5112585;28;20181;-59
2021/05/29 07:29:19;;;;;;;7.50;6.80;;;15.40;1.00;;;;;;5112229;28;20566;-59
2021/05/29 07:31:46;;;;;;;6.93;6.30;;;15.50;1.00;;;;;;5110865;27;20539;-60
2021/05/29 07:34:12;;;;;;;8.97;7.70;;;15.80;1.00;;;;;;5109752;28;20209;-60
2021/05/29 07:36:39;;;;;;;8.43;7.37;;;16.10;1.00;;;;;;5111465;28;20474;-59
2021/05/29 07:39:06;;;;;;;8.00;7.30;;;16.40;1.00;;;;;;5113333;27;20469;-59
2021/05/29 07:41:33;;;;;;;7.97;7.17;;;16.50;1.00;;;;;;5112642;27;20455;-59
2021/05/29 07:43:58;;;;;;;8.23;7.00;;;16.40;1.00;;;;;;5107948;28;20578;-59
2021/05/29 07:46:25;;;;;;;9.37;8.47;;;15.90;1.00;;;;;;5103714;27;20605;-60
2021/05/29 07:48:51;;;;;;;9.50;6.87;;;15.80;1.00;;;;;;5098375;28;20186;-61
2021/05/29 07:51:17;;;;;;;9.20;7.33;;;15.90;1.00;;;;;;5112025;28;20444;-59
2021/05/29 07:53:43;;;;;;;7.63;6.90;;;15.80;1.00;;;;;;5111900;28;20424;-60
2021/05/29 07:56:11;;;;;;;10.27;6.90;;;15.80;1.00;;;;;;5112152;28;20440;-59
2021/05/29 07:58:40;;;;;;;8.20;7.50;;;15.90;1.00;;;;;;5093244;28;20555;-60
2021/05/29 08:01:05;;;;;;;8.43;7.63;;;15.90;1.00;;;;;;5111788;28;20439;-59
2021/05/29 08:03:31;;;;;;;6.70;6.00;;;15.90;1.00;;;;;;5109404;28;20448;-58
2021/05/29 08:05:57;;;;;;;7.83;7.10;;;15.60;1.00;;;;;;5111359;28;20197;-58
2021/05/29 08:08:24;;;;;;;6.73;6.13;;;15.70;1.00;;;;;;5111898;28;20194;-58
2021/05/29 08:10:52;;;;;;;10.87;6.90;;;16.10;1.00;;;;;;5111500;28;20510;-59
2021/05/29 08:13:18;;;;;;;8.13;6.43;;;16.30;1.00;;;;;;5092923;28;20414;-60
2021/05/29 08:15:44;;;;;;;8.53;6.43;;;16.30;1.00;;;;;;5099109;28;21057;-61
2021/05/29 08:18:10;;;;;;;6.60;6.00;;;16.30;1.00;;;;;;5110594;27;20554;-58
2021/05/29 08:20:39;;;;;;;7.03;6.43;;;16.30;1.00;;;;;;5110825;28;20770;-58
2021/05/29 08:23:05;;;;;;;6.70;6.13;;;16.30;1.00;;;;;;5111267;28;20894;-59
2021/05/29 08:25:32;;;;;;;7.97;6.33;;;16.30;1.00;;;;;;5110549;28;20497;-58
2021/05/29 08:27:58;;;;;;;7.00;6.30;;;16.20;1.00;;;;;;5110760;28;20440;-58
2021/05/29 08:30:24;;;;;;;6.33;5.80;;;16.10;1.00;;;;;;5111378;28;20425;-57
2021/05/29 08:32:49;;;;;;;7.67;6.27;;;15.90;1.00;;;;;;5111145;28;20208;-58
2021/05/29 08:35:15;;;;;;;8.03;6.00;;;15.80;1.00;;;;;;5111078;28;20185;-59
2021/05/29 08:37:44;;;;;;;5.63;5.20;;;16.20;1.00;;;;;;5110780;28;20236;-60
2021/05/29 08:40:11;;;;;;;6.10;5.43;;;16.80;1.00;;;;;;5111132;28;20322;-60
2021/05/29 08:42:37;;;;;;;9.17;6.10;;;16.90;1.00;;;;;;5107681;28;20993;-59
2021/05/29 08:45:05;;;;;;;6.67;5.70;;;17.00;1.00;;;;;;5107423;28;20524;-58
2021/05/29 08:47:31;;;;;;;10.03;5.57;;;17.30;1.00;;;;;;5110617;28;20439;-58
2021/05/29 08:49:56;;;;;;;7.13;5.10;;;17.50;1.00;;;;;;5110805;28;20437;-59
2021/05/29 08:52:22;;;;;;;5.43;4.97;;;17.40;1.00;;;;;;5109032;28;20431;-58
2021/05/29 08:54:48;;;;;;;6.77;6.20;;;17.50;1.00;;;;;;5110927;28;20580;-57
2021/05/29 08:57:16;;;;;;;7.43;5.83;;;17.60;1.00;;;;;;5110357;28;20268;-58
2021/05/29 08:59:41;;;;;;;10.20;6.43;;;17.60;1.00;;;;;;5110787;28;20255;-57
2021/05/29 09:02:07;;;;;;;6.27;5.67;;;17.50;1.00;;;;;;5110478;28;20786;-59
2021/05/29 09:04:32;;;;;;;7.73;6.00;;;17.30;1.00;;;;;;5110700;28;20216;-59
2021/05/29 09:06:59;;;;;;;6.50;5.90;;;16.60;1.00;;;;;;5083048;28;20228;-58
2021/05/29 09:09:24;;;;;;;8.83;5.17;;;16.60;1.00;;;;;;5109823;28;20848;-59
2021/05/29 09:12:02;;;;;;;6.80;6.10;;;16.40;1.00;;;;;;5092732;28;20523;-58
2021/05/29 09:14:34;;;;;;;8.30;7.17;;;16.60;1.00;;;;;;5109686;28;20181;-57
2021/05/29 09:17:15;;;;;;;8.50;6.10;;;16.60;1.00;;;;;;5103589;28;20483;-57
2021/05/29 09:19:56;;;;;;;7.03;6.30;;;16.10;1.00;;;;;;5109791;28;21070;-58
2021/05/29 09:22:28;;;;;;;6.83;5.90;;;14.70;1.00;;;;;;5110723;28;20462;-57
2021/05/29 09:25:05;;;;;;;5.93;5.20;;;16.10;1.00;;;;;;5089664;28;20805;-60
2021/05/29 09:27:54;;;;;;;7.33;6.63;;;16.40;1.00;;;;;;5110154;28;20442;-59
2021/05/29 09:30:49;;;;;;;7.10;5.80;;;16.50;1.00;;;;;;5092758;28;20436;-59
2021/05/29 09:33:20;;;;;;;5.97;5.47;;;16.60;1.00;;;;;;5111015;28;20497;-61
2021/05/29 09:35:47;;;;;;;5.37;4.87;;;17.10;1.00;;;;;;5110005;28;20453;-58
2021/05/29 09:38:14;;;;;;;5.63;5.23;;;17.40;1.00;;;;;;5110236;28;20963;-59
2021/05/29 09:40:56;;;;;;;7.20;6.07;;;17.30;1.00;;;;;;5113521;27;20455;-60
2021/05/29 09:43:22;;;;;;;6.73;6.00;;;17.50;1.00;;;;;;5114342;28;20417;-59
2021/05/29 09:45:59;;;;;;;8.10;5.40;;;17.60;1.00;;;;;;5114116;28;20443;-59
2021/05/29 09:48:24;;;;;;;6.13;5.53;;;17.70;1.00;;;;;;5106457;28;20185;-59
2021/05/29 09:51:12;;;;;;;9.53;5.90;;;17.70;1.00;;;;;;5114079;28;20973;-60
2021/05/29 09:53:38;;;;;;;5.93;5.30;;;18.20;1.00;;;;;;5110938;28;20182;-58
2021/05/29 09:56:06;;;;;;;7.03;5.53;;;18.00;1.00;;;;;;5114635;28;20428;-62
2021/05/29 09:59:00;;;;;;;6.37;5.80;;;18.00;1.00;;;;;;5114153;28;20489;-61
2021/05/29 10:01:35;;;;;;;5.57;5.07;;;18.10;1.00;;;;;;5113299;28;20417;-62
2021/05/29 10:04:01;;;;;;;6.47;5.00;;;18.20;1.00;;;;;;5112534;28;20412;-60
2021/05/29 10:06:27;;;;;;;9.20;6.03;;;18.50;1.00;;;;;;5098497;28;20424;-60
2021/05/29 10:08:53;;;;;;;7.13;5.87;;;18.40;1.00;;;;;;5112814;28;20419;-59
2021/05/29 10:11:19;;;;;;;5.70;5.17;;;18.40;1.00;;;;;;5102261;28;20182;-61
2021/05/29 10:13:44;;;;;;;7.47;5.27;;;18.30;1.00;;;;;;5108047;27;20451;-60
2021/05/29 10:16:11;;;;;;;6.93;4.80;;;18.30;1.00;;;;;;5086058;28;20196;-58
2021/05/29 10:18:38;;;;;;;5.20;4.70;;;18.60;1.00;;;;;;5102408;28;20206;-60
2021/05/29 10:21:04;;;;;;;5.17;4.53;;;18.80;1.00;;;;;;5106263;27;20458;-59
2021/05/29 10:23:31;;;;;;;6.23;4.93;;;19.20;1.00;;;;;;5106967;27;20447;-59
2021/05/29 10:25:59;;;;;;;5.77;5.27;;;19.10;1.00;;;;;;5107011;28;20321;-58
2021/05/29 10:28:25;;;;;;;8.23;5.60;;;18.70;1.00;;;;;;5105703;27;20541;-59
2021/05/29 10:30:51;;;;;;;5.67;4.77;;;18.40;1.00;;;;;;5112519;28;20535;-62
2021/05/29 10:33:20;;;;;;;5.60;4.60;;;18.90;1.00;;;;;;5109818;28;20258;-61
2021/05/29 10:35:46;;;;;;;8.73;5.10;;;19.50;1.00;;;;;;5104736;28;20437;-60
2021/05/29 10:38:13;;;;;;;6.67;4.83;;;20.30;1.00;;;;;;5110827;28;20442;-62
2021/05/29 10:40:49;;;;;;;6.70;4.90;;;20.40;1.00;;;;;;5113224;28;20417;-59
2021/05/29 10:43:21;;;;;;;5.07;4.40;;;20.50;1.00;;;;;;5108350;28;20502;-58
2021/05/29 10:45:52;;;;;;;4.23;3.83;;;20.50;1.00;;;;;;5103594;27;20475;-57
2021/05/29 10:48:25;;;;;;;5.80;5.23;;;20.00;1.00;;;;;;5101679;27;20471;-57
2021/05/29 10:51:23;;;;;;;7.20;5.20;;;19.60;1.00;;;;;;5100693;27;20996;-59
2021/05/29 10:53:57;;;;;;;8.27;5.60;;;19.20;1.00;;;;;;5099428;27;20950;-59
2021/05/29 10:56:22;;;;;;;6.60;5.57;;;18.80;1.00;;;;;;5104396;28;20444;-57
2021/05/29 10:59:01;;;;;;;10.50;5.27;;;18.50;1.00;;;;;;5102189;27;20478;-60
2021/05/29 11:01:32;;;;;;;5.47;4.97;;;18.20;1.00;;;;;;5109571;28;20182;-59
2021/05/29 11:04:21;;;;;;;4.60;3.87;;;17.80;1.00;;;;;;5102554;28;20931;-57
2021/05/29 11:07:01;;;;;;;5.77;2.97;;;17.50;1.00;;;;;;5110151;28;20465;-57
2021/05/29 11:09:27;;;;;;;3.80;2.83;;;17.10;1.00;;;;;;5089643;28;20415;-58
2021/05/29 11:11:57;;;;;;;3.47;3.17;;;16.80;1.00;;;;;;5097436;28;20985;-57
2021/05/29 11:14:25;;;;;;;4.40;3.30;;;16.50;1.00;;;;;;5106111;28;20954;-59
2021/05/29 11:16:54;;;;;;;4.20;3.07;;;14.80;1.00;;;;;;5092959;28;20414;-59
2021/05/29 11:19:24;;;;;;;5.60;2.77;;;16.10;1.00;;;;;;5074720;28;20962;-58
2021/05/29 11:21:58;;;;;;;3.40;2.50;;;15.70;1.00;;;;;;5104691;28;20438;-58
2021/05/29 11:24:23;;;;;;;3.03;2.80;;;15.40;1.00;;;;;;5094209;28;20438;-57
2021/05/29 11:26:49;;;;;;;2.47;2.27;;;15.50;1.00;;;;;;5091841;28;20436;-57
2021/05/29 11:29:14;;;;;;;3.93;2.10;;;15.60;1.00;;;;;;5094485;28;20191;-59
2021/05/29 11:31:44;;;;;;;4.23;2.40;;;15.90;1.00;;;;;;5112323;28;20671;-59
2021/05/29 11:34:09;;;;;;;2.63;2.40;;;16.60;1.00;;;;;;5107613;27;20192;-58
2021/05/29 11:36:39;;;;;;;3.03;2.50;;;17.20;1.00;;;;;;5108411;28;20471;-59
2021/05/29 11:39:13;;;;;;;3.07;2.40;;;17.20;1.00;;;;;;5097816;28;20213;-59
2021/05/29 11:41:39;;;;;;;3.33;1.80;;;17.70;1.00;;;;;;5096434;28;20440;-59
2021/05/29 11:44:19;;;;;;;1.77;1.63;;;17.90;1.00;;;;;;5112069;27;20457;-59
2021/05/29 11:46:44;;;;;;;2.57;1.90;;;17.90;1.00;;;;;;5098836;28;20512;-58
2021/05/29 11:49:10;;;;;;;1.93;1.83;;;18.00;1.00;;;;;;5097749;28;20414;-57
2021/05/29 11:51:37;;;;;;;1.90;1.80;;;18.10;1.00;;;;;;5112586;28;20666;-58
2021/05/29 11:54:07;;;;;;;1.87;1.77;;;18.30;1.00;;;;;;5109285;28;20233;-57
2021/05/29 11:56:34;;;;;;;3.33;1.77;;;18.50;1.00;;;;;;5102604;28;20468;-58
2021/05/29 11:59:01;;;;;;;2.17;1.70;;;18.50;1.00;;;;;;5080314;28;20460;-56
2021/05/29 12:01:43;;;;;;;2.20;2.00;;;18.50;1.00;;;;;;5106079;28;20435;-58
2021/05/29 12:04:15;;;;;;;3.10;2.00;;;18.40;1.00;;;;;;5105561;28;20403;-59
2021/05/29 12:07:02;;;;;;;2.40;2.20;;;18.30;1.00;;;;;;5108927;28;20435;-57
2021/05/29 12:09:30;;;;;;;3.53;2.30;;;18.00;1.00;;;;;;5097918;28;20497;-58
2021/05/29 12:12:02;;;;;;;4.20;3.13;;;18.00;1.00;;;;;;5110748;28;20420;-58
2021/05/29 12:14:39;;;;;;;5.97;3.47;;;18.10;1.00;;;;;;5111156;28;20452;-57
2021/05/29 12:17:06;;;;;;;3.53;3.23;;;17.80;1.00;;;;;;5111022;28;20534;-59
2021/05/29 12:19:50;;;;;;;3.90;3.43;;;17.60;1.00;;;;;;5092936;28;20459;-57
2021/05/29 12:22:17;;;;;;;5.77;3.50;;;17.70;1.00;;;;;;5103039;28;20429;-58
2021/05/29 12:24:58;;;;;;;4.53;2.73;;;18.00;1.00;;;;;;5089494;28;20451;-59
2021/05/29 12:27:43;;;;;;;4.10;3.37;;;18.20;1.00;;;;;;5102936;28;20414;-58
2021/05/29 12:30:14;;;;;;;5.67;3.47;;;18.20;1.00;;;;;;5098603;28;20879;-57
2021/05/29 12:32:41;;;;;;;4.20;3.80;;;18.00;1.00;;;;;;5084396;28;20475;-57
2021/05/29 12:35:09;;;;;;;4.33;3.90;;;18.50;1.00;;;;;;5105364;28;20426;-57
2021/05/29 12:37:37;;;;;;;4.50;4.10;;;18.60;1.00;;;;;;5102908;28;20468;-56
2021/05/29 12:40:12;;;;;;;4.40;4.00;;;18.70;1.00;;;;;;5085820;28;20768;-57
2021/05/29 12:42:38;;;;;;;3.83;3.50;;;18.30;1.00;;;;;;5105918;28;20436;-57
2021/05/29 12:45:33;;;;;;;4.30;3.20;;;17.90;1.00;;;;;;5100582;28;20415;-58
2021/05/29 12:48:06;;;;;;;3.77;2.70;;;17.20;1.00;;;;;;5083724;28;20430;-56
2021/05/29 12:50:39;;;;;;;3.70;3.10;;;16.70;1.00;;;;;;5105595;28;20467;-57
2021/05/29 12:53:16;;;;;;;5.63;3.03;;;16.60;1.00;;;;;;5111376;28;20414;-57
2021/05/29 12:55:43;;;;;;;3.03;2.80;;;16.80;1.00;;;;;;5084141;28;20526;-57
2021/05/29 12:58:13;;;;;;;4.87;2.90;;;17.10;1.00;;;;;;5101278;28;20470;-57
2021/05/29 13:11:41;;;;;;;3.70;2.53;;;17.90;1.00;;;;;;5101102;28;20454;-58
2021/05/29 13:14:18;;;;;;;3.50;2.80;;;17.70;1.00;;;;;;5108304;28;20513;-58
2021/05/29 13:17:02;;;;;;;4.90;2.73;;;17.80;1.00;;;;;;5094392;28;20445;-58
2021/05/29 13:19:54;;;;;;;3.50;3.00;;;17.80;1.00;;;;;;5106484;28;20438;-59
2021/05/29 13:22:28;;;;;;;3.47;3.17;;;18.10;1.00;;;;;;5105998;28;20993;-58